1AZ8 weather

Willow Springs Ranch Airport
Bullhead City, Arizona, United States

Public forecast

Using degrees Fahrenheit for public forecast. Weather courtesy of forecast.io.

METAR (pilot weather report)

Closest report is Laughlin Bullhead International Airport, 12.4 nm (22.9 km) SW. Retrieved 2019/03/26 13:35 UTC (15 minutes ago):

KIFP 261335Z AUTO 09004KT 10SM CLR 11/M03 A2997 RMK AO2

TAF (pilot weather forecast)

Closest forecast is Laughlin Bullhead International Airport, 12.4 nm (22.9 km) SW. Retrieved 2019/03/26 12:39 UTC (1 hour ago):

TAF KIFP 261136Z 2612/2712 VRB05KT P6SM BKN250 FM261900 19012KT P6SM BKN250 FM270200 17008KT P6SM SCT250